Terminal Aerodrome Forecast
Issued by NWS

Current Version | Previous Version | Text Only | Print | Product List | Glossary On
Versions: 1 2 3 4 5 6 7 8 9 10 11 12 13 14 15 16 17 18 19 20 21 22 23 24 25 26 27 28 29 30 31 32 33 34 35 36 37 38 39 40 41 42 43 44 45 46 47 48 49 50
000
FTUS43 KDMX 201922 AAB
TAFFOD
TAF AMD
KFOD 201922Z 2019/2118 09005KT 1/2SM FG BKN003 OVC011
     FM202300 12006KT 2SM BR OVC003
     FM210400 11006KT 1/2SM -RA FG OVC002
     FM211200 15006KT 1/4SM FG VCSH OVC001
     FM211600 17006KT 2SM BR OVC002=

USA.gov is the U.S. government's official web portal to all federal, state and local government web resources and services.